createdAt,value
2018-09-24T00:00:15.353Z,1.07
2018-09-24T00:02:45.315Z,0.50
2018-09-24T00:05:15.205Z,0.50
2018-09-24T00:07:45.050Z,0.53
2018-09-24T00:10:14.881Z,0.43
2018-09-24T00:12:44.697Z,0.40
2018-09-24T00:15:14.550Z,0.40
2018-09-24T00:17:44.353Z,0.50
2018-09-24T00:20:14.697Z,0.30
2018-09-24T00:22:44.489Z,0.40
2018-09-24T00:25:14.303Z,0.60
2018-09-24T00:27:44.107Z,0.40
2018-09-24T00:30:14.241Z,1.60
2018-09-24T00:32:44.053Z,0.40
2018-09-24T00:35:13.875Z,0.63
2018-09-24T00:37:43.606Z,0.40
2018-09-24T00:40:13.573Z,0.47
2018-09-24T00:42:43.777Z,0.50
2018-09-24T00:45:13.659Z,0.50
2018-09-24T00:47:43.510Z,0.87
2018-09-24T00:50:13.370Z,1.43
2018-09-24T00:52:43.139Z,0.83
2018-09-24T00:55:12.921Z,0.60
2018-09-24T00:57:42.691Z,1.13
2018-09-24T01:00:12.559Z,1.20
2018-09-24T01:02:42.347Z,0.63
2018-09-24T01:05:12.243Z,0.50
2018-09-24T01:07:41.992Z,1.03
2018-09-24T01:10:11.749Z,0.50
2018-09-24T01:12:41.543Z,1.33
2018-09-24T01:15:11.311Z,0.60
2018-09-24T01:17:41.151Z,0.57
2018-09-24T01:20:11.585Z,1.30
2018-09-24T01:22:41.925Z,1.60
2018-09-24T01:25:11.728Z,0.63
2018-09-24T01:27:41.759Z,1.20
2018-09-24T01:30:11.534Z,1.67
2018-09-24T01:32:41.376Z,0.60
2018-09-24T01:35:11.182Z,0.70
2018-09-24T01:37:40.961Z,0.63
2018-09-24T01:40:10.829Z,0.60
2018-09-24T01:42:40.571Z,0.93
2018-09-24T01:45:10.348Z,0.80
2018-09-24T01:47:40.182Z,0.80
2018-09-24T01:50:10.056Z,0.60
2018-09-24T01:52:39.965Z,1.03
2018-09-24T01:55:09.715Z,0.70
2018-09-24T01:57:39.457Z,0.73
2018-09-24T02:00:09.280Z,0.83
2018-09-24T02:02:39.062Z,1.07
2018-09-24T02:05:15.900Z,1.20
2018-09-24T02:07:45.716Z,1.30
2018-09-24T02:10:16.498Z,1.47
2018-09-24T02:12:46.266Z,1.30
2018-09-24T02:15:16.100Z,1.70
2018-09-24T02:17:45.905Z,1.20
2018-09-24T02:20:15.685Z,1.50
2018-09-24T02:22:45.475Z,1.53
2018-09-24T02:25:15.366Z,1.50
2018-09-24T02:27:45.178Z,1.47
2018-09-24T02:30:16.949Z,1.10
2018-09-24T02:32:46.798Z,1.13
2018-09-24T02:35:16.926Z,1.13
2018-09-24T02:37:46.682Z,1.23
2018-09-24T02:40:22.806Z,1.03
2018-09-24T02:42:52.632Z,1.20
2018-09-24T02:45:22.394Z,1.20
2018-09-24T02:47:52.966Z,1.10
2018-09-24T02:50:28.097Z,1.23
2018-09-24T02:52:57.858Z,1.17
2018-09-24T02:55:27.587Z,1.30
2018-09-24T02:57:57.334Z,2.83
2018-09-24T03:00:27.288Z,1.47
2018-09-24T03:02:57.062Z,1.30
2018-09-24T03:05:26.818Z,1.00
2018-09-24T03:07:56.591Z,1.47
2018-09-24T03:10:26.380Z,1.03
2018-09-24T03:12:56.330Z,1.27
2018-09-24T03:15:26.266Z,2.93
2018-09-24T03:17:56.029Z,1.27
2018-09-24T03:20:25.790Z,1.30
2018-09-24T03:22:55.582Z,1.33
2018-09-24T03:25:25.341Z,1.00
2018-09-24T03:27:55.577Z,1.10
2018-09-24T03:30:25.506Z,1.70
2018-09-24T03:32:55.290Z,1.43
2018-09-24T03:35:25.133Z,1.07
2018-09-24T03:37:55.226Z,1.20
2018-09-24T03:40:25.073Z,1.37
2018-09-24T03:42:55.734Z,1.00
2018-09-24T03:45:25.902Z,1.47
2018-09-24T03:47:55.780Z,2.13
2018-09-24T03:50:25.542Z,2.67
2018-09-24T03:52:55.341Z,1.33
2018-09-24T03:55:25.294Z,1.53
2018-09-24T03:57:55.056Z,2.60
2018-09-24T04:00:24.958Z,1.37
2018-09-24T04:02:54.736Z,1.17
2018-09-24T04:05:29.728Z,1.60
2018-09-24T04:08:04.592Z,1.47
2018-09-24T04:10:39.475Z,1.43
2018-09-24T04:13:14.584Z,1.67
2018-09-24T04:15:49.514Z,3.33
2018-09-24T04:18:24.618Z,3.77
2018-09-24T04:20:59.540Z,1.87
2018-09-24T04:23:34.913Z,1.60
2018-09-24T04:26:09.818Z,0.67
2018-09-24T04:28:44.752Z,1.20
2018-09-24T04:31:19.714Z,0.57
2018-09-24T04:33:54.447Z,1.40
2018-09-24T04:36:29.646Z,1.17
2018-09-24T04:39:04.940Z,1.20
2018-09-24T04:41:39.897Z,0.80
2018-09-24T04:44:14.982Z,0.77
2018-09-24T04:46:49.830Z,1.17
2018-09-24T04:49:24.803Z,1.03
2018-09-24T04:51:59.751Z,1.23
2018-09-24T04:55:22.208Z,0.80
2018-09-24T04:57:57.248Z,1.23
2018-09-24T05:00:32.016Z,1.83
2018-09-24T05:03:06.883Z,0.73
2018-09-24T05:05:41.749Z,1.10
2018-09-24T05:08:16.516Z,2.30
2018-09-24T05:10:52.741Z,2.33
2018-09-24T05:13:27.717Z,4.13
2018-09-24T05:16:02.582Z,3.23
2018-09-24T05:18:37.687Z,1.97
2018-09-24T05:21:12.723Z,1.63
2018-09-24T05:23:47.791Z,1.70
2018-09-24T05:26:22.887Z,1.50
2018-09-24T05:28:57.808Z,2.03
2018-09-24T05:31:32.676Z,1.23
2018-09-24T05:34:07.563Z,6.73
2018-09-24T05:36:42.517Z,5.93
2018-09-24T05:39:17.925Z,2.23
2018-09-24T05:41:52.773Z,2.13
2018-09-24T05:44:27.615Z,2.03
2018-09-24T05:47:02.417Z,2.43
2018-09-24T05:49:37.679Z,2.70
2018-09-24T05:52:13.214Z,2.53
2018-09-24T05:54:48.319Z,3.20
2018-09-24T05:57:23.403Z,2.20
2018-09-24T05:59:58.313Z,2.90
2018-09-24T06:02:33.455Z,1.60
2018-09-24T06:05:08.577Z,1.63
2018-09-24T06:07:43.425Z,1.47
2018-09-24T06:10:18.311Z,1.83
2018-09-24T06:12:53.120Z,2.10
2018-09-24T06:15:28.169Z,2.10
2018-09-24T06:18:03.210Z,5.93
2018-09-24T06:20:38.257Z,2.00
2018-09-24T06:23:13.137Z,1.77
2018-09-24T06:25:47.967Z,1.70
2018-09-24T06:28:22.971Z,2.13
2018-09-24T06:30:58.200Z,2.77
2018-09-24T06:33:33.024Z,2.07
2018-09-24T06:36:07.892Z,1.70
2018-09-24T06:38:42.743Z,2.30
2018-09-24T06:41:17.818Z,2.53
2018-09-24T06:43:52.965Z,3.37
2018-09-24T06:46:27.989Z,2.10
2018-09-24T06:49:03.046Z,2.50
2018-09-24T06:51:37.890Z,1.97
2018-09-24T06:54:12.811Z,3.40
2018-09-24T06:56:47.753Z,1.40
2018-09-24T06:59:22.682Z,1.87
2018-09-24T07:01:57.672Z,1.60
2018-09-24T07:04:32.584Z,1.60
2018-09-24T07:07:07.342Z,1.40
2018-09-24T07:09:42.508Z,2.90
2018-09-24T07:12:17.535Z,1.70
2018-09-24T07:14:52.436Z,3.43
2018-09-24T07:17:27.520Z,2.23
2018-09-24T07:20:02.494Z,1.93
2018-09-24T07:22:37.434Z,2.13
2018-09-24T07:25:12.368Z,2.50
2018-09-24T07:27:47.436Z,2.47
2018-09-24T07:30:22.420Z,2.60
2018-09-24T07:32:57.343Z,3.37
2018-09-24T07:35:32.466Z,2.07
2018-09-24T07:38:07.467Z,1.47
2018-09-24T07:40:42.261Z,2.43
2018-09-24T07:43:17.126Z,1.80
2018-09-24T07:45:52.173Z,1.97
2018-09-24T07:48:27.256Z,3.20
2018-09-24T07:51:02.087Z,1.37
2018-09-24T07:53:36.942Z,1.73
2018-09-24T07:56:11.723Z,1.50
2018-09-24T07:58:46.598Z,2.00
2018-09-24T08:01:21.586Z,1.90
2018-09-24T08:03:56.455Z,2.30
2018-09-24T08:06:31.336Z,1.60
2018-09-24T08:09:06.244Z,1.97
2018-09-24T08:11:41.327Z,2.20
2018-09-24T08:14:16.105Z,2.30
2018-09-24T08:16:51.056Z,2.00
2018-09-24T08:19:25.864Z,1.67
2018-09-24T08:22:00.792Z,2.80
2018-09-24T08:24:35.631Z,1.80
2018-09-24T08:27:10.688Z,1.93
2018-09-24T08:29:45.610Z,2.07
2018-09-24T08:32:20.481Z,1.40
2018-09-24T08:34:55.706Z,2.20
2018-09-24T08:37:30.750Z,3.63
2018-09-24T08:40:05.636Z,2.60
2018-09-24T08:42:40.572Z,1.73
2018-09-24T08:45:15.581Z,2.93
2018-09-24T08:47:50.410Z,3.60
2018-09-24T08:50:25.578Z,1.70
2018-09-24T08:53:00.412Z,2.00
2018-09-24T08:55:35.301Z,1.93
2018-09-24T08:58:10.468Z,2.80
2018-09-24T09:00:45.473Z,1.97
2018-09-24T09:03:20.586Z,2.47
2018-09-24T09:05:55.777Z,1.40
2018-09-24T09:08:30.592Z,1.77
2018-09-24T09:11:05.520Z,2.60
2018-09-24T09:13:40.453Z,1.40
2018-09-24T09:16:15.435Z,1.30
2018-09-24T09:18:50.385Z,1.73
2018-09-24T09:21:25.398Z,2.00
2018-09-24T09:24:00.230Z,1.97
2018-09-24T09:26:35.582Z,1.47
2018-09-24T09:29:10.735Z,3.47
2018-09-24T09:31:45.738Z,1.73
2018-09-24T09:34:22.853Z,2.10
2018-09-24T09:36:58.120Z,2.33
2018-09-24T09:39:33.119Z,2.00
2018-09-24T09:42:07.951Z,3.67
2018-09-24T09:44:43.219Z,2.13
2018-09-24T09:47:18.401Z,1.77
2018-09-24T09:49:53.627Z,1.70
2018-09-24T09:52:31.277Z,1.77
2018-09-24T09:55:06.151Z,1.50
2018-09-24T09:57:41.393Z,0.90
2018-09-24T10:00:16.384Z,1.50
2018-09-24T10:02:51.217Z,2.73
2018-09-24T10:05:26.357Z,1.20
2018-09-24T10:08:01.365Z,2.63
2018-09-24T10:10:36.899Z,0.97
2018-09-24T10:13:11.700Z,1.00
2018-09-24T10:15:46.558Z,3.13
2018-09-24T10:18:21.472Z,2.27
2018-09-24T10:20:56.521Z,1.83
2018-09-24T10:23:31.398Z,3.33
2018-09-24T10:26:06.194Z,2.10
2018-09-24T10:28:41.349Z,1.90
2018-09-24T10:31:16.232Z,4.80
2018-09-24T10:33:51.160Z,3.30
2018-09-24T10:36:26.341Z,3.40
2018-09-24T10:39:01.357Z,1.30
2018-09-24T10:41:36.291Z,2.93
2018-09-24T10:44:11.342Z,3.60
2018-09-24T10:46:46.171Z,3.93
2018-09-24T10:49:21.100Z,1.30
2018-09-24T10:51:56.061Z,1.60
2018-09-24T10:54:30.960Z,2.17
2018-09-24T10:57:05.983Z,1.80
2018-09-24T10:59:41.142Z,1.27
2018-09-24T11:02:16.155Z,3.17
2018-09-24T11:04:51.053Z,2.03
2018-09-24T11:07:26.271Z,3.43
2018-09-24T11:10:01.262Z,2.30
2018-09-24T11:12:36.205Z,1.87
2018-09-24T11:15:11.309Z,2.03
2018-09-24T11:17:46.343Z,2.30
2018-09-24T11:20:21.379Z,2.30
2018-09-24T11:22:56.401Z,2.50
2018-09-24T11:25:31.281Z,4.50
2018-09-24T11:28:06.351Z,2.60
2018-09-24T11:30:41.558Z,7.13
2018-09-24T11:33:16.630Z,2.57
2018-09-24T11:35:51.581Z,2.40
2018-09-24T11:38:26.611Z,2.13
2018-09-24T11:41:01.619Z,1.10
2018-09-24T11:43:36.673Z,2.63
2018-09-24T11:46:12.171Z,2.20
2018-09-24T11:48:47.124Z,1.53
2018-09-24T11:51:22.045Z,3.40
2018-09-24T11:53:57.480Z,3.63
2018-09-24T11:56:32.317Z,3.23
2018-09-24T11:59:07.109Z,2.33
2018-09-24T12:01:42.091Z,2.00
2018-09-24T12:04:17.312Z,2.40
2018-09-24T12:06:52.263Z,1.60
2018-09-24T12:09:27.139Z,1.83
2018-09-24T12:12:02.011Z,2.07
2018-09-24T12:14:36.824Z,3.77
2018-09-24T12:17:11.875Z,1.57
2018-09-24T12:19:46.953Z,3.67
2018-09-24T12:22:21.982Z,3.80
2018-09-24T12:24:57.003Z,2.20
2018-09-24T12:27:32.464Z,3.57
2018-09-24T12:30:07.352Z,2.03
2018-09-24T12:32:42.304Z,6.20
2018-09-24T12:35:17.480Z,4.40
2018-09-24T12:37:52.441Z,4.70
2018-09-24T12:40:27.561Z,3.50
2018-09-24T12:43:02.561Z,1.90
2018-09-24T12:45:37.534Z,3.40
2018-09-24T12:48:12.617Z,2.33
2018-09-24T12:50:47.636Z,1.50
2018-09-24T12:53:22.694Z,5.57
2018-09-24T12:55:58.000Z,4.00
2018-09-24T12:58:33.206Z,2.90
2018-09-24T13:01:07.990Z,3.47
2018-09-24T13:03:42.829Z,1.33
2018-09-24T13:06:17.878Z,2.90
2018-09-24T13:08:52.945Z,2.70
2018-09-24T13:11:27.734Z,1.67
2018-09-24T13:14:02.610Z,3.53
2018-09-24T13:16:37.422Z,1.90
2018-09-24T13:19:12.493Z,1.60
2018-09-24T13:21:47.484Z,2.77
2018-09-24T13:24:22.282Z,7.30
2018-09-24T13:26:57.256Z,6.33
2018-09-24T13:29:32.535Z,3.10
2018-09-24T13:32:07.464Z,3.57
2018-09-24T13:34:42.418Z,5.27
2018-09-24T13:37:17.326Z,2.00
2018-09-24T13:39:52.198Z,3.43
2018-09-24T13:42:27.122Z,2.67
2018-09-24T13:45:02.065Z,4.10
2018-09-24T13:47:37.064Z,1.47
2018-09-24T13:50:12.281Z,1.50
2018-09-24T13:52:47.080Z,4.20
2018-09-24T13:55:22.074Z,3.47
2018-09-24T13:57:56.900Z,3.20
2018-09-24T14:00:32.051Z,3.07
2018-09-24T14:03:06.871Z,1.33
2018-09-24T14:05:41.626Z,3.67
2018-09-24T14:08:26.184Z,3.00
2018-09-24T14:11:01.124Z,2.80
2018-09-24T14:13:36.406Z,3.97
2018-09-24T14:16:11.377Z,4.73
2018-09-24T14:18:46.314Z,4.07
2018-09-24T14:21:21.162Z,6.87
2018-09-24T14:23:55.845Z,4.90
2018-09-24T14:26:30.698Z,3.17
2018-09-24T14:29:05.501Z,2.47
2018-09-24T14:31:40.386Z,2.23
2018-09-24T14:34:15.267Z,5.57
2018-09-24T14:36:50.245Z,3.40
2018-09-24T14:39:25.025Z,4.60
2018-09-24T14:41:59.981Z,1.30
2018-09-24T14:44:35.095Z,5.67
2018-09-24T14:47:09.883Z,2.70
2018-09-24T14:49:44.778Z,3.97
2018-09-24T14:52:19.631Z,3.60
2018-09-24T14:54:54.538Z,2.43
2018-09-24T14:57:29.640Z,4.37
2018-09-24T15:00:04.677Z,4.40
2018-09-24T15:02:39.525Z,2.63
2018-09-24T15:05:14.465Z,4.27
2018-09-24T15:07:49.576Z,5.00
2018-09-24T15:10:24.453Z,3.77
2018-09-24T15:12:59.247Z,4.30
2018-09-24T15:15:34.175Z,4.53
2018-09-24T15:18:09.059Z,4.07
2018-09-24T15:20:44.005Z,2.87
2018-09-24T15:23:19.009Z,4.03
2018-09-24T15:25:54.085Z,4.97
2018-09-24T15:28:29.133Z,3.87
2018-09-24T15:31:04.303Z,3.57
2018-09-24T15:33:39.121Z,4.27
2018-09-24T15:36:14.147Z,6.00
2018-09-24T15:38:49.171Z,3.53
2018-09-24T15:41:24.266Z,3.40
2018-09-24T15:43:59.209Z,3.33
2018-09-24T15:46:34.342Z,3.00
2018-09-24T15:49:09.470Z,3.10
2018-09-24T15:51:44.558Z,5.70
2018-09-24T15:54:19.423Z,2.93
2018-09-24T15:56:54.362Z,3.43
2018-09-24T15:59:29.191Z,3.67
2018-09-24T16:02:04.105Z,4.97
2018-09-24T16:04:39.246Z,4.13
2018-09-24T16:07:14.168Z,3.23
2018-09-24T16:09:49.147Z,3.07
2018-09-24T16:12:24.108Z,3.40
2018-09-24T16:14:59.162Z,4.03
2018-09-24T16:17:34.179Z,2.30
2018-09-24T16:20:09.080Z,5.37
2018-09-24T16:22:43.981Z,6.83
2018-09-24T16:25:18.860Z,4.93
2018-09-24T16:27:53.864Z,5.97
2018-09-24T16:30:28.980Z,3.40
2018-09-24T16:33:03.853Z,3.30
2018-09-24T16:35:38.684Z,3.50
2018-09-24T16:38:13.687Z,4.17
2018-09-24T16:40:48.602Z,7.07
2018-09-24T16:43:23.593Z,3.33
2018-09-24T16:45:58.821Z,2.60
2018-09-24T16:48:33.668Z,2.43
2018-09-24T16:51:08.601Z,3.53
2018-09-24T16:53:43.682Z,3.97
2018-09-24T16:56:18.846Z,2.93
2018-09-24T16:58:53.903Z,5.90
2018-09-24T17:01:29.007Z,3.83
2018-09-24T17:04:03.938Z,2.43
2018-09-24T17:06:38.957Z,2.53
2018-09-24T17:09:15.911Z,3.80
2018-09-24T17:11:50.996Z,3.23
2018-09-24T17:14:26.464Z,3.93
2018-09-24T17:17:01.296Z,3.43
2018-09-24T17:19:36.596Z,4.00
2018-09-24T17:22:11.674Z,3.43
2018-09-24T17:24:46.759Z,2.20
2018-09-24T17:27:21.695Z,2.73
2018-09-24T17:29:56.725Z,2.93
2018-09-24T17:32:31.778Z,3.57
2018-09-24T17:35:06.888Z,3.20
2018-09-24T17:37:41.901Z,4.20
2018-09-24T17:40:17.006Z,3.23
2018-09-24T17:42:51.824Z,3.20
2018-09-24T17:45:26.912Z,5.23
2018-09-24T17:48:01.859Z,2.83
2018-09-24T17:50:37.032Z,3.40
2018-09-24T17:53:12.185Z,3.97
2018-09-24T17:55:47.386Z,5.33
2018-09-24T17:58:22.282Z,5.73
2018-09-24T18:00:57.263Z,4.97
2018-09-24T18:03:32.335Z,4.37
2018-09-24T18:06:07.394Z,2.53
2018-09-24T18:08:43.266Z,5.67
2018-09-24T18:11:18.246Z,4.53
2018-09-24T18:13:53.216Z,5.43
2018-09-24T18:16:28.144Z,3.83
2018-09-24T18:19:03.144Z,3.43
2018-09-24T18:21:38.282Z,2.77
2018-09-24T18:24:13.428Z,4.77
2018-09-24T18:26:48.950Z,4.97
2018-09-24T18:29:24.023Z,6.87
2018-09-24T18:31:59.234Z,4.20
2018-09-24T18:34:34.182Z,5.27
2018-09-24T18:37:09.181Z,5.57
2018-09-24T18:39:44.434Z,7.13
2018-09-24T18:42:19.268Z,4.57
2018-09-24T18:44:54.392Z,7.33
2018-09-24T18:47:29.471Z,6.13
2018-09-24T18:50:04.573Z,8.77
2018-09-24T18:52:39.750Z,4.13
2018-09-24T18:55:14.692Z,3.93
2018-09-24T18:57:49.622Z,7.13
2018-09-24T19:00:25.110Z,5.63
2018-09-24T19:03:00.090Z,4.93
2018-09-24T19:05:35.042Z,6.50
2018-09-24T19:08:09.895Z,5.93
2018-09-24T19:10:44.887Z,4.63
2018-09-24T19:13:20.036Z,6.80
2018-09-24T19:15:54.881Z,6.33
2018-09-24T19:18:29.949Z,4.07
2018-09-24T19:21:05.333Z,8.73
2018-09-24T19:23:40.354Z,8.97
2018-09-24T19:26:15.191Z,7.43
2018-09-24T19:28:50.129Z,5.87
2018-09-24T19:31:25.676Z,3.50
2018-09-24T19:34:00.797Z,5.10
2018-09-24T19:36:35.796Z,4.53
2018-09-24T19:39:13.136Z,6.03
2018-09-24T19:41:48.753Z,4.10
2018-09-24T19:44:24.116Z,4.27
2018-09-24T19:46:59.033Z,5.83
2018-09-24T19:49:33.915Z,4.23
2018-09-24T19:52:09.103Z,7.50
2018-09-24T19:54:44.147Z,6.13
2018-09-24T19:57:19.388Z,5.83
2018-09-24T19:59:54.685Z,4.07
2018-09-24T20:02:30.143Z,4.87
2018-09-24T20:05:05.217Z,3.43
2018-09-24T20:07:40.291Z,3.83
2018-09-24T20:10:15.196Z,3.87
2018-09-24T20:12:50.115Z,3.10
2018-09-24T20:15:25.348Z,5.87
2018-09-24T20:18:00.991Z,8.33
2018-09-24T20:20:35.969Z,6.37
2018-09-24T20:23:11.069Z,3.00
2018-09-24T20:25:45.995Z,5.63
2018-09-24T20:28:20.855Z,5.70
2018-09-24T20:30:55.737Z,4.20
2018-09-24T20:33:30.809Z,5.23
2018-09-24T20:36:05.698Z,6.43
2018-09-24T20:38:40.520Z,2.90
2018-09-24T20:41:15.360Z,4.20
2018-09-24T20:43:50.487Z,3.53
2018-09-24T20:46:25.489Z,4.03
2018-09-24T20:49:00.634Z,7.00
2018-09-24T20:51:35.575Z,4.83
2018-09-24T20:54:11.052Z,3.87
2018-09-24T20:56:45.922Z,4.27
2018-09-24T20:59:20.825Z,5.63
2018-09-24T21:01:55.690Z,4.33
2018-09-24T21:04:30.600Z,4.20
2018-09-24T21:07:05.641Z,3.87
2018-09-24T21:09:40.531Z,8.57
2018-09-24T21:12:15.452Z,7.03
2018-09-24T21:14:50.334Z,2.67
2018-09-24T21:17:25.372Z,5.30
2018-09-24T21:20:00.664Z,3.27
2018-09-24T21:22:35.585Z,4.23
2018-09-24T21:25:10.530Z,3.83
2018-09-24T21:27:45.568Z,3.80
2018-09-24T21:30:20.571Z,4.60
2018-09-24T21:32:55.404Z,4.43
2018-09-24T21:35:30.413Z,9.47
2018-09-24T21:38:05.268Z,3.73
2018-09-24T21:40:40.150Z,5.40
2018-09-24T21:43:14.996Z,6.40
2018-09-24T21:45:49.839Z,5.83
2018-09-24T21:48:25.032Z,7.03
2018-09-24T21:50:59.835Z,7.23
2018-09-24T21:53:34.777Z,4.83
2018-09-24T21:56:09.717Z,4.50
2018-09-24T21:58:44.656Z,5.60
2018-09-24T22:01:19.550Z,4.10
2018-09-24T22:03:54.546Z,5.60
2018-09-24T22:06:29.879Z,5.03
2018-09-24T22:09:04.654Z,3.83
2018-09-24T22:11:39.550Z,4.37
2018-09-24T22:14:14.416Z,3.20
2018-09-24T22:16:50.693Z,3.90
2018-09-24T22:19:25.690Z,3.40
2018-09-24T22:22:00.720Z,7.33
2018-09-24T22:24:35.528Z,3.93
2018-09-24T22:27:10.366Z,6.43
2018-09-24T22:29:45.196Z,3.53
2018-09-24T22:32:20.136Z,4.33
2018-09-24T22:34:54.931Z,2.97
2018-09-24T22:37:29.884Z,4.80
2018-09-24T22:40:04.695Z,5.10
2018-09-24T22:42:40.012Z,4.87
2018-09-24T22:45:14.897Z,6.40
2018-09-24T22:47:49.650Z,5.50
2018-09-24T22:50:24.629Z,3.63
2018-09-24T22:52:59.626Z,4.27
2018-09-24T22:55:34.409Z,4.47
2018-09-24T22:58:09.240Z,4.10
2018-09-24T23:00:44.051Z,6.23
2018-09-24T23:03:19.014Z,3.37
2018-09-24T23:05:53.999Z,9.10
2018-09-24T23:08:28.994Z,3.77
2018-09-24T23:11:04.053Z,4.67
2018-09-24T23:13:39.062Z,3.47
2018-09-24T23:16:14.086Z,4.33
2018-09-24T23:18:49.130Z,3.20
2018-09-24T23:21:23.922Z,4.33
2018-09-24T23:23:58.919Z,3.20
2018-09-24T23:26:33.996Z,5.10
2018-09-24T23:29:08.866Z,4.20
2018-09-24T23:31:43.713Z,5.60
2018-09-24T23:34:18.524Z,3.63
2018-09-24T23:36:53.298Z,5.50
2018-09-24T23:39:28.194Z,8.03
2018-09-24T23:42:03.239Z,4.73
2018-09-24T23:44:38.110Z,3.87
2018-09-24T23:47:13.522Z,6.70
2018-09-24T23:49:48.368Z,4.80
2018-09-24T23:52:23.278Z,6.77
2018-09-24T23:54:58.254Z,4.47
2018-09-24T23:57:33.318Z,3.57
